sensor_id;sensor_type;location;lat;lon;timestamp;P1;durP1;ratioP1;P2;durP2;ratioP2
50367;SDS011;36281;34.132;-118.018;2024-03-22T00:00:11;10.80;;;7.22;;
50367;SDS011;36281;34.132;-118.018;2024-03-22T00:02:39;12.25;;;8.13;;
50367;SDS011;36281;34.132;-118.018;2024-03-22T00:05:07;10.93;;;7.55;;
50367;SDS011;36281;34.132;-118.018;2024-03-22T00:07:35;8.68;;;6.32;;
50367;SDS011;36281;34.132;-118.018;2024-03-22T00:10:07;11.27;;;7.57;;
50367;SDS011;36281;34.132;-118.018;2024-03-22T00:12:35;9.35;;;6.47;;
50367;SDS011;36281;34.132;-118.018;2024-03-22T00:15:03;9.77;;;6.85;;
50367;SDS011;36281;34.132;-118.018;2024-03-22T00:17:33;10.30;;;7.13;;
50367;SDS011;36281;34.132;-118.018;2024-03-22T00:20:02;9.55;;;6.10;;
50367;SDS011;36281;34.132;-118.018;2024-03-22T00:22:31;8.80;;;6.05;;
50367;SDS011;36281;34.132;-118.018;2024-03-22T00:24:59;7.55;;;5.97;;
50367;SDS011;36281;34.132;-118.018;2024-03-22T00:27:28;11.30;;;6.82;;
50367;SDS011;36281;34.132;-118.018;2024-03-22T00:29:56;8.07;;;6.00;;
50367;SDS011;36281;34.132;-118.018;2024-03-22T00:32:24;7.65;;;5.88;;
50367;SDS011;36281;34.132;-118.018;2024-03-22T00:34:52;9.18;;;5.75;;
50367;SDS011;36281;34.132;-118.018;2024-03-22T00:37:19;10.93;;;6.43;;
50367;SDS011;36281;34.132;-118.018;2024-03-22T00:39:48;7.53;;;6.00;;
50367;SDS011;36281;34.132;-118.018;2024-03-22T00:42:16;10.02;;;5.90;;
50367;SDS011;36281;34.132;-118.018;2024-03-22T00:44:45;8.05;;;5.70;;
50367;SDS011;36281;34.132;-118.018;2024-03-22T00:47:13;8.07;;;5.53;;
50367;SDS011;36281;34.132;-118.018;2024-03-22T00:49:43;10.23;;;5.90;;
50367;SDS011;36281;34.132;-118.018;2024-03-22T00:52:11;8.65;;;5.82;;
50367;SDS011;36281;34.132;-118.018;2024-03-22T00:54:39;8.07;;;5.80;;
50367;SDS011;36281;34.132;-118.018;2024-03-22T00:57:06;10.43;;;5.78;;
50367;SDS011;36281;34.132;-118.018;2024-03-22T00:59:35;6.68;;;5.75;;
50367;SDS011;36281;34.132;-118.018;2024-03-22T01:02:04;10.93;;;5.82;;
50367;SDS011;36281;34.132;-118.018;2024-03-22T01:04:32;8.95;;;6.32;;
50367;SDS011;36281;34.132;-118.018;2024-03-22T01:07:00;7.63;;;5.80;;
50367;SDS011;36281;34.132;-118.018;2024-03-22T01:09:28;8.32;;;5.82;;
50367;SDS011;36281;34.132;-118.018;2024-03-22T01:11:57;9.52;;;5.47;;
50367;SDS011;36281;34.132;-118.018;2024-03-22T01:14:24;10.68;;;5.25;;
50367;SDS011;36281;34.132;-118.018;2024-03-22T01:16:52;9.73;;;6.07;;
50367;SDS011;36281;34.132;-118.018;2024-03-22T01:19:23;9.60;;;5.70;;
50367;SDS011;36281;34.132;-118.018;2024-03-22T01:21:51;9.23;;;6.00;;
50367;SDS011;36281;34.132;-118.018;2024-03-22T01:24:18;9.00;;;5.53;;
50367;SDS011;36281;34.132;-118.018;2024-03-22T01:26:46;10.02;;;5.82;;
50367;SDS011;36281;34.132;-118.018;2024-03-22T01:29:14;8.48;;;6.03;;
50367;SDS011;36281;34.132;-118.018;2024-03-22T01:31:43;8.65;;;6.32;;
50367;SDS011;36281;34.132;-118.018;2024-03-22T01:34:11;10.90;;;6.10;;
50367;SDS011;36281;34.132;-118.018;2024-03-22T01:36:41;10.32;;;5.97;;
50367;SDS011;36281;34.132;-118.018;2024-03-22T01:39:09;7.95;;;5.95;;
50367;SDS011;36281;34.132;-118.018;2024-03-22T01:41:37;8.02;;;5.80;;
50367;SDS011;36281;34.132;-118.018;2024-03-22T01:44:05;7.65;;;5.95;;
50367;SDS011;36281;34.132;-118.018;2024-03-22T01:46:33;8.43;;;6.35;;
50367;SDS011;36281;34.132;-118.018;2024-03-22T01:49:01;9.48;;;6.35;;
50367;SDS011;36281;34.132;-118.018;2024-03-22T01:51:29;7.80;;;6.07;;
50367;SDS011;36281;34.132;-118.018;2024-03-22T01:53:59;6.55;;;5.88;;
50367;SDS011;36281;34.132;-118.018;2024-03-22T01:56:31;11.10;;;6.20;;
50367;SDS011;36281;34.132;-118.018;2024-03-22T01:58:58;10.63;;;6.57;;
50367;SDS011;36281;34.132;-118.018;2024-03-22T02:01:26;8.10;;;6.47;;
50367;SDS011;36281;34.132;-118.018;2024-03-22T02:03:54;9.52;;;6.45;;
50367;SDS011;36281;34.132;-118.018;2024-03-22T02:06:22;8.98;;;6.90;;
50367;SDS011;36281;34.132;-118.018;2024-03-22T02:08:51;9.68;;;7.38;;
50367;SDS011;36281;34.132;-118.018;2024-03-22T02:11:20;10.52;;;7.10;;
50367;SDS011;36281;34.132;-118.018;2024-03-22T02:13:49;9.48;;;7.05;;
50367;SDS011;36281;34.132;-118.018;2024-03-22T02:16:17;9.85;;;7.38;;
50367;SDS011;36281;34.132;-118.018;2024-03-22T02:18:45;7.97;;;7.07;;
50367;SDS011;36281;34.132;-118.018;2024-03-22T02:21:13;11.88;;;7.20;;
50367;SDS011;36281;34.132;-118.018;2024-03-22T02:23:42;10.57;;;7.28;;
50367;SDS011;36281;34.132;-118.018;2024-03-22T02:26:12;9.18;;;7.47;;
50367;SDS011;36281;34.132;-118.018;2024-03-22T02:28:40;10.57;;;7.47;;
50367;SDS011;36281;34.132;-118.018;2024-03-22T02:31:07;9.55;;;7.88;;
50367;SDS011;36281;34.132;-118.018;2024-03-22T02:33:35;11.40;;;8.30;;
50367;SDS011;36281;34.132;-118.018;2024-03-22T02:36:03;11.27;;;8.40;;
50367;SDS011;36281;34.132;-118.018;2024-03-22T02:38:32;12.18;;;9.73;;
50367;SDS011;36281;34.132;-118.018;2024-03-22T02:41:02;15.32;;;9.43;;
50367;SDS011;36281;34.132;-118.018;2024-03-22T02:43:30;12.50;;;9.07;;
50367;SDS011;36281;34.132;-118.018;2024-03-22T02:45:58;13.35;;;8.98;;
50367;SDS011;36281;34.132;-118.018;2024-03-22T02:48:25;11.15;;;8.55;;
50367;SDS011;36281;34.132;-118.018;2024-03-22T02:50:55;14.23;;;9.10;;
50367;SDS011;36281;34.132;-118.018;2024-03-22T02:53:24;10.30;;;8.95;;
50367;SDS011;36281;34.132;-118.018;2024-03-22T02:55:52;12.32;;;9.20;;
50367;SDS011;36281;34.132;-118.018;2024-03-22T02:58:21;9.77;;;8.57;;
50367;SDS011;36281;34.132;-118.018;2024-03-22T03:00:50;14.13;;;8.95;;
50367;SDS011;36281;34.132;-118.018;2024-03-22T03:03:18;12.98;;;9.38;;
50367;SDS011;36281;34.132;-118.018;2024-03-22T03:05:47;11.27;;;9.02;;
50367;SDS011;36281;34.132;-118.018;2024-03-22T03:08:15;11.00;;;8.48;;
50367;SDS011;36281;34.132;-118.018;2024-03-22T03:10:42;12.93;;;9.73;;
50367;SDS011;36281;34.132;-118.018;2024-03-22T03:13:11;11.50;;;8.68;;
50367;SDS011;36281;34.132;-118.018;2024-03-22T03:15:41;11.57;;;8.75;;
50367;SDS011;36281;34.132;-118.018;2024-03-22T03:18:08;13.32;;;9.68;;
50367;SDS011;36281;34.132;-118.018;2024-03-22T03:20:36;12.73;;;8.77;;
50367;SDS011;36281;34.132;-118.018;2024-03-22T03:23:04;11.63;;;9.30;;
50367;SDS011;36281;34.132;-118.018;2024-03-22T03:25:32;10.82;;;8.40;;
50367;SDS011;36281;34.132;-118.018;2024-03-22T03:28:00;12.05;;;8.50;;
50367;SDS011;36281;34.132;-118.018;2024-03-22T03:30:27;13.57;;;10.57;;
50367;SDS011;36281;34.132;-118.018;2024-03-22T03:32:57;13.48;;;10.05;;
50367;SDS011;36281;34.132;-118.018;2024-03-22T03:35:24;13.85;;;10.32;;
50367;SDS011;36281;34.132;-118.018;2024-03-22T03:37:53;13.57;;;10.73;;
50367;SDS011;36281;34.132;-118.018;2024-03-22T03:40:20;13.48;;;10.27;;
50367;SDS011;36281;34.132;-118.018;2024-03-22T03:42:50;13.98;;;9.73;;
50367;SDS011;36281;34.132;-118.018;2024-03-22T03:45:18;11.38;;;9.55;;
50367;SDS011;36281;34.132;-118.018;2024-03-22T03:47:47;11.27;;;9.15;;
50367;SDS011;36281;34.132;-118.018;2024-03-22T03:50:18;13.88;;;9.98;;
50367;SDS011;36281;34.132;-118.018;2024-03-22T03:52:45;14.25;;;11.10;;
50367;SDS011;36281;34.132;-118.018;2024-03-22T03:55:13;16.02;;;10.77;;
50367;SDS011;36281;34.132;-118.018;2024-03-22T03:57:41;14.07;;;11.07;;
50367;SDS011;36281;34.132;-118.018;2024-03-22T04:00:09;17.30;;;11.35;;
50367;SDS011;36281;34.132;-118.018;2024-03-22T04:02:37;13.35;;;11.52;;
50367;SDS011;36281;34.132;-118.018;2024-03-22T04:05:05;14.73;;;10.73;;
50367;SDS011;36281;34.132;-118.018;2024-03-22T04:07:35;13.75;;;11.10;;
50367;SDS011;36281;34.132;-118.018;2024-03-22T04:10:02;15.40;;;11.30;;
50367;SDS011;36281;34.132;-118.018;2024-03-22T04:12:30;13.75;;;11.18;;
50367;SDS011;36281;34.132;-118.018;2024-03-22T04:14:58;14.15;;;11.35;;
50367;SDS011;36281;34.132;-118.018;2024-03-22T04:17:26;13.85;;;10.93;;
50367;SDS011;36281;34.132;-118.018;2024-03-22T04:19:54;13.73;;;10.77;;
50367;SDS011;36281;34.132;-118.018;2024-03-22T04:22:21;16.75;;;12.25;;
50367;SDS011;36281;34.132;-118.018;2024-03-22T04:24:50;14.63;;;11.70;;
50367;SDS011;36281;34.132;-118.018;2024-03-22T04:27:18;19.23;;;11.43;;
50367;SDS011;36281;34.132;-118.018;2024-03-22T04:29:47;14.90;;;11.45;;
50367;SDS011;36281;34.132;-118.018;2024-03-22T04:32:15;14.55;;;10.60;;
50367;SDS011;36281;34.132;-118.018;2024-03-22T04:34:43;16.45;;;11.45;;
50367;SDS011;36281;34.132;-118.018;2024-03-22T04:37:11;13.80;;;11.20;;
50367;SDS011;36281;34.132;-118.018;2024-03-22T04:39:39;19.10;;;12.70;;
50367;SDS011;36281;34.132;-118.018;2024-03-22T04:42:09;17.88;;;11.88;;
50367;SDS011;36281;34.132;-118.018;2024-03-22T04:44:36;13.07;;;10.80;;
50367;SDS011;36281;34.132;-118.018;2024-03-22T04:47:04;14.70;;;12.13;;
50367;SDS011;36281;34.132;-118.018;2024-03-22T04:49:32;19.55;;;12.55;;
50367;SDS011;36281;34.132;-118.018;2024-03-22T04:52:02;14.07;;;11.88;;
50367;SDS011;36281;34.132;-118.018;2024-03-22T04:54:30;15.65;;;12.65;;
50367;SDS011;36281;34.132;-118.018;2024-03-22T04:56:57;15.85;;;13.95;;
50367;SDS011;36281;34.132;-118.018;2024-03-22T04:59:27;18.00;;;12.90;;
50367;SDS011;36281;34.132;-118.018;2024-03-22T05:01:55;18.35;;;14.00;;
50367;SDS011;36281;34.132;-118.018;2024-03-22T05:04:22;20.90;;;15.43;;
50367;SDS011;36281;34.132;-118.018;2024-03-22T05:06:50;18.83;;;13.85;;
50367;SDS011;36281;34.132;-118.018;2024-03-22T05:09:17;22.05;;;15.70;;
50367;SDS011;36281;34.132;-118.018;2024-03-22T05:11:46;20.27;;;15.13;;
50367;SDS011;36281;34.132;-118.018;2024-03-22T05:14:17;20.80;;;13.43;;
50367;SDS011;36281;34.132;-118.018;2024-03-22T05:16:47;20.13;;;13.45;;
50367;SDS011;36281;34.132;-118.018;2024-03-22T05:19:15;18.92;;;13.95;;
50367;SDS011;36281;34.132;-118.018;2024-03-22T05:21:43;17.92;;;14.02;;
50367;SDS011;36281;34.132;-118.018;2024-03-22T05:24:10;19.67;;;15.18;;
50367;SDS011;36281;34.132;-118.018;2024-03-22T05:26:39;20.08;;;14.27;;
50367;SDS011;36281;34.132;-118.018;2024-03-22T05:29:06;19.85;;;14.85;;
50367;SDS011;36281;34.132;-118.018;2024-03-22T05:31:36;19.63;;;14.35;;
50367;SDS011;36281;34.132;-118.018;2024-03-22T05:34:15;27.73;;;16.02;;
50367;SDS011;36281;34.132;-118.018;2024-03-22T05:36:43;18.67;;;14.65;;
50367;SDS011;36281;34.132;-118.018;2024-03-22T05:39:10;20.67;;;14.93;;
50367;SDS011;36281;34.132;-118.018;2024-03-22T05:41:39;20.02;;;15.02;;
50367;SDS011;36281;34.132;-118.018;2024-03-22T05:44:07;20.10;;;15.38;;
50367;SDS011;36281;34.132;-118.018;2024-03-22T05:46:35;21.08;;;15.75;;
50367;SDS011;36281;34.132;-118.018;2024-03-22T05:49:04;20.67;;;15.77;;
50367;SDS011;36281;34.132;-118.018;2024-03-22T05:51:34;21.30;;;16.25;;
50367;SDS011;36281;34.132;-118.018;2024-03-22T05:54:01;21.30;;;15.90;;
50367;SDS011;36281;34.132;-118.018;2024-03-22T05:56:29;25.70;;;16.55;;
50367;SDS011;36281;34.132;-118.018;2024-03-22T05:58:56;20.98;;;15.77;;
50367;SDS011;36281;34.132;-118.018;2024-03-22T06:01:24;20.85;;;15.27;;
50367;SDS011;36281;34.132;-118.018;2024-03-22T06:03:51;22.33;;;15.95;;
50367;SDS011;36281;34.132;-118.018;2024-03-22T06:06:21;23.70;;;17.05;;
50367;SDS011;36281;34.132;-118.018;2024-03-22T06:08:51;21.10;;;16.70;;
50367;SDS011;36281;34.132;-118.018;2024-03-22T06:11:20;21.83;;;16.60;;
50367;SDS011;36281;34.132;-118.018;2024-03-22T06:13:48;23.92;;;17.40;;
50367;SDS011;36281;34.132;-118.018;2024-03-22T06:16:17;27.23;;;17.95;;
50367;SDS011;36281;34.132;-118.018;2024-03-22T06:18:44;23.33;;;17.60;;
50367;SDS011;36281;34.132;-118.018;2024-03-22T06:21:12;22.80;;;17.52;;
50367;SDS011;36281;34.132;-118.018;2024-03-22T06:23:42;21.63;;;16.42;;
50367;SDS011;36281;34.132;-118.018;2024-03-22T06:26:10;21.70;;;16.60;;
50367;SDS011;36281;34.132;-118.018;2024-03-22T06:28:37;19.48;;;15.68;;
50367;SDS011;36281;34.132;-118.018;2024-03-22T06:31:05;21.73;;;17.17;;
50367;SDS011;36281;34.132;-118.018;2024-03-22T06:33:33;28.02;;;18.05;;
50367;SDS011;36281;34.132;-118.018;2024-03-22T06:36:03;24.85;;;17.17;;
50367;SDS011;36281;34.132;-118.018;2024-03-22T06:38:32;22.05;;;17.02;;
50367;SDS011;36281;34.132;-118.018;2024-03-22T06:41:02;21.80;;;17.60;;
50367;SDS011;36281;34.132;-118.018;2024-03-22T06:43:30;23.55;;;17.13;;
50367;SDS011;36281;34.132;-118.018;2024-03-22T06:45:58;22.17;;;17.17;;
50367;SDS011;36281;34.132;-118.018;2024-03-22T06:48:25;25.83;;;17.25;;
50367;SDS011;36281;34.132;-118.018;2024-03-22T06:50:53;24.55;;;17.02;;
50367;SDS011;36281;34.132;-118.018;2024-03-22T06:53:21;21.88;;;16.83;;
50367;SDS011;36281;34.132;-118.018;2024-03-22T06:55:49;23.00;;;17.33;;
50367;SDS011;36281;34.132;-118.018;2024-03-22T06:58:22;23.48;;;17.20;;
50367;SDS011;36281;34.132;-118.018;2024-03-22T07:00:50;23.75;;;18.08;;
50367;SDS011;36281;34.132;-118.018;2024-03-22T07:03:18;26.33;;;19.48;;
50367;SDS011;36281;34.132;-118.018;2024-03-22T07:05:47;24.25;;;18.10;;
50367;SDS011;36281;34.132;-118.018;2024-03-22T07:08:15;25.80;;;19.50;;
50367;SDS011;36281;34.132;-118.018;2024-03-22T07:10:43;28.52;;;20.55;;
50367;SDS011;36281;34.132;-118.018;2024-03-22T07:13:11;28.83;;;20.05;;
50367;SDS011;36281;34.132;-118.018;2024-03-22T07:15:43;25.30;;;19.73;;
50367;SDS011;36281;34.132;-118.018;2024-03-22T07:18:11;24.42;;;18.63;;
50367;SDS011;36281;34.132;-118.018;2024-03-22T07:20:42;27.15;;;19.13;;
50367;SDS011;36281;34.132;-118.018;2024-03-22T07:23:12;24.17;;;18.85;;
50367;SDS011;36281;34.132;-118.018;2024-03-22T07:25:39;26.60;;;19.20;;
50367;SDS011;36281;34.132;-118.018;2024-03-22T07:28:09;25.90;;;19.65;;
50367;SDS011;36281;34.132;-118.018;2024-03-22T07:30:36;26.27;;;18.40;;
50367;SDS011;36281;34.132;-118.018;2024-03-22T07:33:06;25.25;;;19.75;;
50367;SDS011;36281;34.132;-118.018;2024-03-22T07:35:34;24.65;;;18.88;;
50367;SDS011;36281;34.132;-118.018;2024-03-22T07:38:02;26.40;;;19.52;;
50367;SDS011;36281;34.132;-118.018;2024-03-22T07:40:30;26.50;;;18.58;;
50367;SDS011;36281;34.132;-118.018;2024-03-22T07:42:59;25.55;;;19.23;;
50367;SDS011;36281;34.132;-118.018;2024-03-22T07:45:32;25.25;;;19.38;;
50367;SDS011;36281;34.132;-118.018;2024-03-22T07:48:01;29.70;;;20.58;;
50367;SDS011;36281;34.132;-118.018;2024-03-22T07:50:30;30.50;;;20.25;;
50367;SDS011;36281;34.132;-118.018;2024-03-22T07:52:59;30.33;;;20.38;;
50367;SDS011;36281;34.132;-118.018;2024-03-22T07:55:27;28.45;;;20.92;;
50367;SDS011;36281;34.132;-118.018;2024-03-22T07:57:54;29.45;;;21.75;;
50367;SDS011;36281;34.132;-118.018;2024-03-22T08:00:23;30.52;;;19.75;;
50367;SDS011;36281;34.132;-118.018;2024-03-22T08:02:52;31.25;;;22.48;;
50367;SDS011;36281;34.132;-118.018;2024-03-22T08:05:19;33.08;;;21.80;;
50367;SDS011;36281;34.132;-118.018;2024-03-22T08:07:50;29.42;;;21.10;;
50367;SDS011;36281;34.132;-118.018;2024-03-22T08:10:18;31.27;;;21.25;;
50367;SDS011;36281;34.132;-118.018;2024-03-22T08:12:46;26.70;;;20.70;;
50367;SDS011;36281;34.132;-118.018;2024-03-22T08:15:13;29.48;;;20.75;;
50367;SDS011;36281;34.132;-118.018;2024-03-22T08:17:41;27.55;;;20.90;;
50367;SDS011;36281;34.132;-118.018;2024-03-22T08:20:09;29.00;;;20.98;;
50367;SDS011;36281;34.132;-118.018;2024-03-22T08:22:37;30.70;;;21.08;;
50367;SDS011;36281;34.132;-118.018;2024-03-22T08:25:06;29.58;;;20.90;;
50367;SDS011;36281;34.132;-118.018;2024-03-22T08:27:34;32.05;;;21.75;;
50367;SDS011;36281;34.132;-118.018;2024-03-22T08:30:02;32.03;;;22.13;;
50367;SDS011;36281;34.132;-118.018;2024-03-22T08:32:30;28.20;;;21.92;;
50367;SDS011;36281;34.132;-118.018;2024-03-22T08:34:57;32.60;;;23.27;;
50367;SDS011;36281;34.132;-118.018;2024-03-22T08:37:26;32.53;;;23.10;;
50367;SDS011;36281;34.132;-118.018;2024-03-22T08:39:54;31.13;;;22.77;;
50367;SDS011;36281;34.132;-118.018;2024-03-22T08:42:23;33.67;;;24.15;;
50367;SDS011;36281;34.132;-118.018;2024-03-22T08:44:53;32.88;;;23.25;;
50367;SDS011;36281;34.132;-118.018;2024-03-22T08:47:21;32.17;;;22.63;;
50367;SDS011;36281;34.132;-118.018;2024-03-22T08:49:49;30.60;;;21.70;;
50367;SDS011;36281;34.132;-118.018;2024-03-22T08:52:17;28.33;;;21.17;;
50367;SDS011;36281;34.132;-118.018;2024-03-22T08:54:45;32.70;;;22.70;;
50367;SDS011;36281;34.132;-118.018;2024-03-22T08:57:12;29.42;;;21.35;;
50367;SDS011;36281;34.132;-118.018;2024-03-22T08:59:42;28.35;;;21.63;;
50367;SDS011;36281;34.132;-118.018;2024-03-22T09:02:09;33.70;;;21.80;;
50367;SDS011;36281;34.132;-118.018;2024-03-22T09:04:37;28.58;;;20.35;;
50367;SDS011;36281;34.132;-118.018;2024-03-22T09:07:05;31.00;;;20.63;;
50367;SDS011;36281;34.132;-118.018;2024-03-22T09:09:33;33.58;;;20.23;;
50367;SDS011;36281;34.132;-118.018;2024-03-22T09:12:01;30.55;;;20.92;;
50367;SDS011;36281;34.132;-118.018;2024-03-22T09:14:28;30.75;;;21.08;;
50367;SDS011;36281;34.132;-118.018;2024-03-22T09:16:58;31.17;;;21.02;;
50367;SDS011;36281;34.132;-118.018;2024-03-22T09:19:25;28.65;;;20.10;;
50367;SDS011;36281;34.132;-118.018;2024-03-22T09:21:53;23.67;;;19.00;;
50367;SDS011;36281;34.132;-118.018;2024-03-22T09:24:21;29.02;;;19.33;;
50367;SDS011;36281;34.132;-118.018;2024-03-22T09:26:48;26.58;;;18.52;;
50367;SDS011;36281;34.132;-118.018;2024-03-22T09:29:16;27.25;;;19.17;;
50367;SDS011;36281;34.132;-118.018;2024-03-22T09:31:44;24.40;;;17.92;;
50367;SDS011;36281;34.132;-118.018;2024-03-22T09:34:13;25.17;;;18.00;;
50367;SDS011;36281;34.132;-118.018;2024-03-22T09:36:42;26.00;;;18.10;;
50367;SDS011;36281;34.132;-118.018;2024-03-22T09:39:10;25.98;;;18.10;;
50367;SDS011;36281;34.132;-118.018;2024-03-22T09:41:39;22.73;;;17.48;;
50367;SDS011;36281;34.132;-118.018;2024-03-22T09:44:13;24.10;;;17.33;;
50367;SDS011;36281;34.132;-118.018;2024-03-22T09:46:42;27.13;;;18.48;;
50367;SDS011;36281;34.132;-118.018;2024-03-22T09:49:10;24.30;;;17.63;;
50367;SDS011;36281;34.132;-118.018;2024-03-22T09:51:41;24.73;;;17.92;;
50367;SDS011;36281;34.132;-118.018;2024-03-22T09:54:10;25.10;;;17.95;;
50367;SDS011;36281;34.132;-118.018;2024-03-22T09:56:38;25.52;;;17.50;;
50367;SDS011;36281;34.132;-118.018;2024-03-22T09:59:06;30.05;;;17.80;;
50367;SDS011;36281;34.132;-118.018;2024-03-22T10:01:34;22.95;;;17.48;;
50367;SDS011;36281;34.132;-118.018;2024-03-22T10:04:03;25.13;;;17.85;;
50367;SDS011;36281;34.132;-118.018;2024-03-22T10:06:32;24.23;;;17.45;;
50367;SDS011;36281;34.132;-118.018;2024-03-22T10:09:00;21.52;;;17.63;;
50367;SDS011;36281;34.132;-118.018;2024-03-22T10:11:28;25.27;;;17.88;;
50367;SDS011;36281;34.132;-118.018;2024-03-22T10:13:55;25.15;;;18.48;;
50367;SDS011;36281;34.132;-118.018;2024-03-22T10:16:23;28.23;;;18.33;;
50367;SDS011;36281;34.132;-118.018;2024-03-22T10:18:50;23.58;;;17.95;;
50367;SDS011;36281;34.132;-118.018;2024-03-22T10:21:19;26.40;;;18.42;;
50367;SDS011;36281;34.132;-118.018;2024-03-22T10:23:49;24.55;;;18.15;;
50367;SDS011;36281;34.132;-118.018;2024-03-22T10:26:18;25.13;;;17.80;;
50367;SDS011;36281;34.132;-118.018;2024-03-22T10:28:46;25.40;;;17.60;;
50367;SDS011;36281;34.132;-118.018;2024-03-22T10:31:14;24.95;;;18.02;;
50367;SDS011;36281;34.132;-118.018;2024-03-22T10:33:41;26.92;;;18.40;;
50367;SDS011;36281;34.132;-118.018;2024-03-22T10:36:11;24.52;;;18.67;;
50367;SDS011;36281;34.132;-118.018;2024-03-22T10:38:40;26.33;;;17.63;;
50367;SDS011;36281;34.132;-118.018;2024-03-22T10:41:10;25.38;;;18.02;;
50367;SDS011;36281;34.132;-118.018;2024-03-22T10:43:38;26.15;;;17.88;;
50367;SDS011;36281;34.132;-118.018;2024-03-22T10:46:06;23.98;;;17.05;;
50367;SDS011;36281;34.132;-118.018;2024-03-22T10:48:36;23.15;;;16.88;;
50367;SDS011;36281;34.132;-118.018;2024-03-22T10:51:06;24.42;;;17.92;;
50367;SDS011;36281;34.132;-118.018;2024-03-22T10:53:34;23.55;;;17.40;;
50367;SDS011;36281;34.132;-118.018;2024-03-22T10:56:04;26.75;;;18.45;;
50367;SDS011;36281;34.132;-118.018;2024-03-22T10:58:37;24.38;;;17.67;;
50367;SDS011;36281;34.132;-118.018;2024-03-22T11:01:07;23.73;;;17.30;;
50367;SDS011;36281;34.132;-118.018;2024-03-22T11:03:49;25.48;;;18.13;;
50367;SDS011;36281;34.132;-118.018;2024-03-22T11:06:19;25.65;;;18.75;;
50367;SDS011;36281;34.132;-118.018;2024-03-22T11:08:49;28.35;;;18.38;;
50367;SDS011;36281;34.132;-118.018;2024-03-22T11:11:18;23.65;;;17.17;;
50367;SDS011;36281;34.132;-118.018;2024-03-22T11:13:49;24.17;;;18.38;;
50367;SDS011;36281;34.132;-118.018;2024-03-22T11:16:16;25.02;;;17.40;;
50367;SDS011;36281;34.132;-118.018;2024-03-22T11:18:44;22.05;;;16.88;;
50367;SDS011;36281;34.132;-118.018;2024-03-22T11:21:14;23.27;;;16.95;;
50367;SDS011;36281;34.132;-118.018;2024-03-22T11:23:44;25.50;;;17.38;;
50367;SDS011;36281;34.132;-118.018;2024-03-22T11:26:12;27.25;;;16.52;;
50367;SDS011;36281;34.132;-118.018;2024-03-22T11:28:40;23.40;;;17.45;;
50367;SDS011;36281;34.132;-118.018;2024-03-22T11:31:09;23.77;;;17.83;;
50367;SDS011;36281;34.132;-118.018;2024-03-22T11:33:37;23.08;;;17.48;;
50367;SDS011;36281;34.132;-118.018;2024-03-22T11:36:06;22.27;;;17.05;;
50367;SDS011;36281;34.132;-118.018;2024-03-22T11:38:34;21.40;;;16.00;;
50367;SDS011;36281;34.132;-118.018;2024-03-22T11:41:01;21.65;;;16.33;;
50367;SDS011;36281;34.132;-118.018;2024-03-22T11:43:30;22.48;;;17.15;;
50367;SDS011;36281;34.132;-118.018;2024-03-22T11:45:58;22.67;;;16.63;;
50367;SDS011;36281;34.132;-118.018;2024-03-22T11:48:29;22.63;;;16.20;;
50367;SDS011;36281;34.132;-118.018;2024-03-22T11:50:57;24.02;;;17.17;;
50367;SDS011;36281;34.132;-118.018;2024-03-22T11:53:26;26.95;;;17.25;;
50367;SDS011;36281;34.132;-118.018;2024-03-22T11:55:54;22.98;;;16.63;;
50367;SDS011;36281;34.132;-118.018;2024-03-22T11:58:21;26.08;;;16.88;;
50367;SDS011;36281;34.132;-118.018;2024-03-22T12:00:49;26.90;;;17.77;;
50367;SDS011;36281;34.132;-118.018;2024-03-22T12:03:17;24.30;;;17.63;;
50367;SDS011;36281;34.132;-118.018;2024-03-22T12:05:47;25.70;;;17.58;;
50367;SDS011;36281;34.132;-118.018;2024-03-22T12:08:17;25.42;;;17.40;;
50367;SDS011;36281;34.132;-118.018;2024-03-22T12:10:45;23.70;;;17.85;;
50367;SDS011;36281;34.132;-118.018;2024-03-22T12:13:12;23.20;;;17.20;;
50367;SDS011;36281;34.132;-118.018;2024-03-22T12:15:40;23.85;;;17.27;;
50367;SDS011;36281;34.132;-118.018;2024-03-22T12:18:07;23.90;;;18.15;;
50367;SDS011;36281;34.132;-118.018;2024-03-22T12:20:35;26.92;;;18.33;;
50367;SDS011;36281;34.132;-118.018;2024-03-22T12:23:04;27.65;;;21.27;;
50367;SDS011;36281;34.132;-118.018;2024-03-22T12:25:32;28.65;;;20.48;;
50367;SDS011;36281;34.132;-118.018;2024-03-22T12:27:59;28.67;;;19.80;;
50367;SDS011;36281;34.132;-118.018;2024-03-22T12:30:27;30.67;;;19.27;;
50367;SDS011;36281;34.132;-118.018;2024-03-22T12:32:54;27.13;;;19.55;;
50367;SDS011;36281;34.132;-118.018;2024-03-22T12:35:23;29.20;;;20.80;;
50367;SDS011;36281;34.132;-118.018;2024-03-22T12:37:51;28.67;;;20.58;;
50367;SDS011;36281;34.132;-118.018;2024-03-22T12:40:21;28.13;;;19.77;;
50367;SDS011;36281;34.132;-118.018;2024-03-22T12:42:48;26.85;;;19.20;;
50367;SDS011;36281;34.132;-118.018;2024-03-22T12:45:16;27.77;;;18.50;;
50367;SDS011;36281;34.132;-118.018;2024-03-22T12:47:44;26.35;;;19.35;;
50367;SDS011;36281;34.132;-118.018;2024-03-22T12:50:11;24.05;;;18.70;;
50367;SDS011;36281;34.132;-118.018;2024-03-22T12:52:39;24.83;;;18.42;;
50367;SDS011;36281;34.132;-118.018;2024-03-22T12:55:07;24.10;;;17.67;;
50367;SDS011;36281;34.132;-118.018;2024-03-22T12:57:37;27.95;;;19.83;;
50367;SDS011;36281;34.132;-118.018;2024-03-22T13:00:06;27.80;;;19.42;;
50367;SDS011;36281;34.132;-118.018;2024-03-22T13:02:39;24.33;;;17.63;;
50367;SDS011;36281;34.132;-118.018;2024-03-22T13:05:08;27.67;;;18.80;;
50367;SDS011;36281;34.132;-118.018;2024-03-22T13:07:36;29.58;;;19.95;;
50367;SDS011;36281;34.132;-118.018;2024-03-22T13:10:04;25.58;;;19.15;;
50367;SDS011;36281;34.132;-118.018;2024-03-22T13:12:32;26.95;;;18.85;;
50367;SDS011;36281;34.132;-118.018;2024-03-22T13:15:04;29.30;;;19.23;;
50367;SDS011;36281;34.132;-118.018;2024-03-22T13:17:32;26.15;;;19.08;;
50367;SDS011;36281;34.132;-118.018;2024-03-22T13:20:00;31.00;;;19.27;;
50367;SDS011;36281;34.132;-118.018;2024-03-22T13:22:36;27.58;;;18.45;;
50367;SDS011;36281;34.132;-118.018;2024-03-22T13:25:04;25.95;;;18.98;;
50367;SDS011;36281;34.132;-118.018;2024-03-22T13:27:33;26.98;;;19.55;;
50367;SDS011;36281;34.132;-118.018;2024-03-22T13:30:02;29.60;;;20.40;;
50367;SDS011;36281;34.132;-118.018;2024-03-22T13:32:32;29.20;;;19.83;;
50367;SDS011;36281;34.132;-118.018;2024-03-22T13:34:59;26.25;;;18.77;;
50367;SDS011;36281;34.132;-118.018;2024-03-22T13:37:27;27.38;;;19.75;;
50367;SDS011;36281;34.132;-118.018;2024-03-22T13:39:54;25.75;;;19.25;;
50367;SDS011;36281;34.132;-118.018;2024-03-22T13:42:22;26.92;;;19.15;;
50367;SDS011;36281;34.132;-118.018;2024-03-22T13:44:50;29.85;;;20.65;;
50367;SDS011;36281;34.132;-118.018;2024-03-22T13:47:19;29.40;;;20.13;;
50367;SDS011;36281;34.132;-118.018;2024-03-22T13:49:46;32.60;;;21.13;;
50367;SDS011;36281;34.132;-118.018;2024-03-22T13:52:14;32.65;;;21.98;;
50367;SDS011;36281;34.132;-118.018;2024-03-22T13:54:42;31.15;;;22.23;;